Bluejacket, Oklahoma
Current Conditions -  °F | °C
As of 8:35 AM on Tuesday 21 Oct 2014 (Local Time) from KGMJ Reporting Station
Moderate Fog Moderate Fog  
Wind Chill: 10°   Ceiling: 100
Heat Index: 10°   Visibility: 0.25mi
Dew Point: 10°   Wind: 0mph
Humidity: 100%   Direction: NA
Pressure: 30.14"   Gusts: NA
Location:  36.8°N, 95.07°W
Report Text: KGMJ 211335Z AUTO 00000KT 1/4SM FG BKN001 10/10 A3014 RMK AO2
Loading
Personal Weather Stations






























Interactive Weather Map
Tropical Storm Tracking
New forecast layout! Learn more

10-Day Weather Forecast

Advertisements
Track Severe Weather on mobile